sensor_id;sensor_type;location;lat;lon;timestamp;temperature;humidity
10538;DHT22;5317;49.048;8.468;2023-06-04T00:01:25;21.50;49.70
10538;DHT22;5317;49.048;8.468;2023-06-04T00:03:54;21.40;49.80
10538;DHT22;5317;49.048;8.468;2023-06-04T00:06:20;21.40;50.00
10538;DHT22;5317;49.048;8.468;2023-06-04T00:08:47;21.30;50.20
10538;DHT22;5317;49.048;8.468;2023-06-04T00:11:14;21.30;50.20
10538;DHT22;5317;49.048;8.468;2023-06-04T00:13:41;21.30;50.20
10538;DHT22;5317;49.048;8.468;2023-06-04T00:16:08;21.20;50.10
10538;DHT22;5317;49.048;8.468;2023-06-04T00:18:35;21.20;50.20
10538;DHT22;5317;49.048;8.468;2023-06-04T00:21:03;21.10;50.30
10538;DHT22;5317;49.048;8.468;2023-06-04T00:23:30;21.10;50.30
10538;DHT22;5317;49.048;8.468;2023-06-04T00:25:57;21.10;50.30
10538;DHT22;5317;49.048;8.468;2023-06-04T00:28:24;21.10;50.30
10538;DHT22;5317;49.048;8.468;2023-06-04T00:30:50;21.10;50.20
10538;DHT22;5317;49.048;8.468;2023-06-04T00:33:17;21.00;50.20
10538;DHT22;5317;49.048;8.468;2023-06-04T00:35:45;21.00;50.20
10538;DHT22;5317;49.048;8.468;2023-06-04T00:38:13;21.00;50.30
10538;DHT22;5317;49.048;8.468;2023-06-04T00:40:40;20.90;50.00
10538;DHT22;5317;49.048;8.468;2023-06-04T00:43:07;20.90;49.90
10538;DHT22;5317;49.048;8.468;2023-06-04T00:45:34;20.80;50.00
10538;DHT22;5317;49.048;8.468;2023-06-04T00:48:02;20.80;50.10
10538;DHT22;5317;49.048;8.468;2023-06-04T00:50:28;20.80;50.10
10538;DHT22;5317;49.048;8.468;2023-06-04T00:52:56;20.80;50.40
10538;DHT22;5317;49.048;8.468;2023-06-04T00:55:24;20.80;50.60
10538;DHT22;5317;49.048;8.468;2023-06-04T00:57:51;20.70;50.40
10538;DHT22;5317;49.048;8.468;2023-06-04T01:00:18;20.70;50.20
10538;DHT22;5317;49.048;8.468;2023-06-04T01:02:47;20.70;50.20
10538;DHT22;5317;49.048;8.468;2023-06-04T01:05:23;20.70;50.30
10538;DHT22;5317;49.048;8.468;2023-06-04T01:07:55;20.60;50.20
10538;DHT22;5317;49.048;8.468;2023-06-04T01:10:25;20.60;50.20
10538;DHT22;5317;49.048;8.468;2023-06-04T01:12:52;20.50;50.10
10538;DHT22;5317;49.048;8.468;2023-06-04T01:15:19;20.50;50.00
10538;DHT22;5317;49.048;8.468;2023-06-04T01:17:49;20.50;50.20
10538;DHT22;5317;49.048;8.468;2023-06-04T01:20:28;20.50;50.10
10538;DHT22;5317;49.048;8.468;2023-06-04T01:23:14;20.50;50.40
10538;DHT22;5317;49.048;8.468;2023-06-04T01:25:43;20.40;51.00
10538;DHT22;5317;49.048;8.468;2023-06-04T01:28:15;20.40;50.40
10538;DHT22;5317;49.048;8.468;2023-06-04T01:30:45;20.30;50.10
10538;DHT22;5317;49.048;8.468;2023-06-04T01:33:15;20.30;50.00
10538;DHT22;5317;49.048;8.468;2023-06-04T01:35:42;20.20;49.70
10538;DHT22;5317;49.048;8.468;2023-06-04T01:38:09;20.20;50.00
10538;DHT22;5317;49.048;8.468;2023-06-04T01:40:36;20.20;49.80
10538;DHT22;5317;49.048;8.468;2023-06-04T01:43:04;20.20;49.90
10538;DHT22;5317;49.048;8.468;2023-06-04T01:45:32;20.20;49.80
10538;DHT22;5317;49.048;8.468;2023-06-04T01:48:01;20.20;49.60
10538;DHT22;5317;49.048;8.468;2023-06-04T01:50:28;20.10;49.20
10538;DHT22;5317;49.048;8.468;2023-06-04T01:52:56;20.20;49.70
10538;DHT22;5317;49.048;8.468;2023-06-04T01:55:23;20.20;49.80
10538;DHT22;5317;49.048;8.468;2023-06-04T01:57:52;20.10;49.30
10538;DHT22;5317;49.048;8.468;2023-06-04T02:00:20;20.10;49.20
10538;DHT22;5317;49.048;8.468;2023-06-04T02:02:47;20.10;49.20
10538;DHT22;5317;49.048;8.468;2023-06-04T02:05:15;20.10;49.20
10538;DHT22;5317;49.048;8.468;2023-06-04T02:07:43;20.00;49.10
10538;DHT22;5317;49.048;8.468;2023-06-04T02:10:12;20.00;49.10
10538;DHT22;5317;49.048;8.468;2023-06-04T02:12:40;20.00;49.20
10538;DHT22;5317;49.048;8.468;2023-06-04T02:15:11;19.90;49.80
10538;DHT22;5317;49.048;8.468;2023-06-04T02:17:40;19.90;49.00
10538;DHT22;5317;49.048;8.468;2023-06-04T02:20:08;19.80;48.60
10538;DHT22;5317;49.048;8.468;2023-06-04T02:22:36;19.80;48.50
10538;DHT22;5317;49.048;8.468;2023-06-04T02:25:03;19.80;48.60
10538;DHT22;5317;49.048;8.468;2023-06-04T02:27:30;19.80;48.60
10538;DHT22;5317;49.048;8.468;2023-06-04T02:29:57;19.80;48.70
10538;DHT22;5317;49.048;8.468;2023-06-04T02:32:25;19.80;48.80
10538;DHT22;5317;49.048;8.468;2023-06-04T02:34:53;19.80;48.70
10538;DHT22;5317;49.048;8.468;2023-06-04T02:37:21;19.80;48.90
10538;DHT22;5317;49.048;8.468;2023-06-04T02:39:47;19.80;48.80
10538;DHT22;5317;49.048;8.468;2023-06-04T02:42:15;19.70;48.90
10538;DHT22;5317;49.048;8.468;2023-06-04T02:44:43;19.70;48.90
10538;DHT22;5317;49.048;8.468;2023-06-04T02:47:10;19.70;49.30
10538;DHT22;5317;49.048;8.468;2023-06-04T02:49:37;19.60;48.20
10538;DHT22;5317;49.048;8.468;2023-06-04T02:52:05;19.60;48.40
10538;DHT22;5317;49.048;8.468;2023-06-04T02:54:33;19.60;48.50
10538;DHT22;5317;49.048;8.468;2023-06-04T02:57:00;19.60;48.50
10538;DHT22;5317;49.048;8.468;2023-06-04T02:59:28;19.50;48.60
10538;DHT22;5317;49.048;8.468;2023-06-04T03:01:56;19.50;48.70
10538;DHT22;5317;49.048;8.468;2023-06-04T03:04:23;19.50;48.60
10538;DHT22;5317;49.048;8.468;2023-06-04T03:06:50;19.50;48.40
10538;DHT22;5317;49.048;8.468;2023-06-04T03:09:24;19.50;48.30
10538;DHT22;5317;49.048;8.468;2023-06-04T03:11:50;19.50;48.20
10538;DHT22;5317;49.048;8.468;2023-06-04T03:14:17;19.40;48.00
10538;DHT22;5317;49.048;8.468;2023-06-04T03:16:44;19.40;47.90
10538;DHT22;5317;49.048;8.468;2023-06-04T03:19:11;19.40;48.00
10538;DHT22;5317;49.048;8.468;2023-06-04T03:21:39;19.40;48.40
10538;DHT22;5317;49.048;8.468;2023-06-04T03:24:07;19.40;48.40
10538;DHT22;5317;49.048;8.468;2023-06-04T03:26:36;19.30;47.90
10538;DHT22;5317;49.048;8.468;2023-06-04T03:29:03;19.30;48.00
10538;DHT22;5317;49.048;8.468;2023-06-04T03:31:29;19.30;48.20
10538;DHT22;5317;49.048;8.468;2023-06-04T03:33:57;19.30;48.00
10538;DHT22;5317;49.048;8.468;2023-06-04T03:36:25;19.30;48.00
10538;DHT22;5317;49.048;8.468;2023-06-04T03:38:57;19.30;48.30
10538;DHT22;5317;49.048;8.468;2023-06-04T03:41:25;19.30;48.50
10538;DHT22;5317;49.048;8.468;2023-06-04T03:43:56;19.30;48.60
10538;DHT22;5317;49.048;8.468;2023-06-04T03:46:23;19.30;48.60
10538;DHT22;5317;49.048;8.468;2023-06-04T03:48:51;19.30;48.60
10538;DHT22;5317;49.048;8.468;2023-06-04T03:51:18;19.30;48.50
10538;DHT22;5317;49.048;8.468;2023-06-04T03:53:45;19.30;48.50
10538;DHT22;5317;49.048;8.468;2023-06-04T03:56:12;19.30;48.40
10538;DHT22;5317;49.048;8.468;2023-06-04T03:58:39;19.30;48.20
10538;DHT22;5317;49.048;8.468;2023-06-04T04:01:08;19.40;48.00
10538;DHT22;5317;49.048;8.468;2023-06-04T04:03:35;19.30;48.30
10538;DHT22;5317;49.048;8.468;2023-06-04T04:06:03;19.40;48.40
10538;DHT22;5317;49.048;8.468;2023-06-04T04:08:29;19.40;48.50
10538;DHT22;5317;49.048;8.468;2023-06-04T04:10:57;19.40;48.50
10538;DHT22;5317;49.048;8.468;2023-06-04T04:13:24;19.40;48.20
10538;DHT22;5317;49.048;8.468;2023-06-04T04:15:50;19.40;48.20
10538;DHT22;5317;49.048;8.468;2023-06-04T04:18:20;19.40;48.00
10538;DHT22;5317;49.048;8.468;2023-06-04T04:20:47;19.40;48.10
10538;DHT22;5317;49.048;8.468;2023-06-04T04:23:14;19.40;48.20
10538;DHT22;5317;49.048;8.468;2023-06-04T04:25:42;19.40;49.00
10538;DHT22;5317;49.048;8.468;2023-06-04T04:28:09;19.40;49.50
10538;DHT22;5317;49.048;8.468;2023-06-04T04:30:36;19.40;49.80
10538;DHT22;5317;49.048;8.468;2023-06-04T04:33:04;19.40;50.00
10538;DHT22;5317;49.048;8.468;2023-06-04T04:35:33;19.40;50.10
10538;DHT22;5317;49.048;8.468;2023-06-04T04:38:00;19.40;49.70
10538;DHT22;5317;49.048;8.468;2023-06-04T04:40:28;19.50;49.70
10538;DHT22;5317;49.048;8.468;2023-06-04T04:42:56;19.50;49.90
10538;DHT22;5317;49.048;8.468;2023-06-04T04:45:23;19.50;50.50
10538;DHT22;5317;49.048;8.468;2023-06-04T04:47:50;19.50;51.30
10538;DHT22;5317;49.048;8.468;2023-06-04T04:50:17;19.50;51.10
10538;DHT22;5317;49.048;8.468;2023-06-04T04:52:45;19.50;50.60
10538;DHT22;5317;49.048;8.468;2023-06-04T04:55:12;19.50;51.00
10538;DHT22;5317;49.048;8.468;2023-06-04T04:57:39;19.50;51.40
10538;DHT22;5317;49.048;8.468;2023-06-04T05:00:07;19.50;50.90
10538;DHT22;5317;49.048;8.468;2023-06-04T05:02:34;19.50;51.70
10538;DHT22;5317;49.048;8.468;2023-06-04T05:05:02;19.50;50.80
10538;DHT22;5317;49.048;8.468;2023-06-04T05:07:29;19.50;50.80
10538;DHT22;5317;49.048;8.468;2023-06-04T05:09:57;19.60;50.90
10538;DHT22;5317;49.048;8.468;2023-06-04T05:12:26;19.60;50.20
10538;DHT22;5317;49.048;8.468;2023-06-04T05:14:53;19.60;50.40
10538;DHT22;5317;49.048;8.468;2023-06-04T05:17:19;19.70;51.10
10538;DHT22;5317;49.048;8.468;2023-06-04T05:19:55;19.70;50.70
10538;DHT22;5317;49.048;8.468;2023-06-04T05:22:31;19.80;51.00
10538;DHT22;5317;49.048;8.468;2023-06-04T05:25:00;19.80;50.40
10538;DHT22;5317;49.048;8.468;2023-06-04T05:27:27;19.90;50.50
10538;DHT22;5317;49.048;8.468;2023-06-04T05:29:54;19.90;50.10
10538;DHT22;5317;49.048;8.468;2023-06-04T05:32:21;20.00;50.70
10538;DHT22;5317;49.048;8.468;2023-06-04T05:34:49;20.00;50.10
10538;DHT22;5317;49.048;8.468;2023-06-04T05:37:16;20.10;49.60
10538;DHT22;5317;49.048;8.468;2023-06-04T05:39:43;20.10;49.70
10538;DHT22;5317;49.048;8.468;2023-06-04T05:42:11;20.20;50.10
10538;DHT22;5317;49.048;8.468;2023-06-04T05:44:40;20.20;50.00
10538;DHT22;5317;49.048;8.468;2023-06-04T05:47:07;20.30;49.90
10538;DHT22;5317;49.048;8.468;2023-06-04T05:49:34;20.30;49.00
10538;DHT22;5317;49.048;8.468;2023-06-04T05:52:01;20.40;49.00
10538;DHT22;5317;49.048;8.468;2023-06-04T05:54:29;20.40;48.60
10538;DHT22;5317;49.048;8.468;2023-06-04T05:56:56;20.50;48.90
10538;DHT22;5317;49.048;8.468;2023-06-04T05:59:25;20.50;48.90
10538;DHT22;5317;49.048;8.468;2023-06-04T06:01:51;20.60;48.40
10538;DHT22;5317;49.048;8.468;2023-06-04T06:04:18;20.60;47.90
10538;DHT22;5317;49.048;8.468;2023-06-04T06:06:45;20.70;47.70
10538;DHT22;5317;49.048;8.468;2023-06-04T06:09:14;20.70;47.10
10538;DHT22;5317;49.048;8.468;2023-06-04T06:11:41;20.80;47.40
10538;DHT22;5317;49.048;8.468;2023-06-04T06:14:10;20.80;47.30
10538;DHT22;5317;49.048;8.468;2023-06-04T06:16:38;20.80;46.90
10538;DHT22;5317;49.048;8.468;2023-06-04T06:19:05;20.90;47.10
10538;DHT22;5317;49.048;8.468;2023-06-04T06:21:32;21.00;47.00
10538;DHT22;5317;49.048;8.468;2023-06-04T06:23:59;21.00;46.90
10538;DHT22;5317;49.048;8.468;2023-06-04T06:26:26;21.10;46.90
10538;DHT22;5317;49.048;8.468;2023-06-04T06:28:53;21.20;47.00
10538;DHT22;5317;49.048;8.468;2023-06-04T06:31:20;21.20;46.70
10538;DHT22;5317;49.048;8.468;2023-06-04T06:33:48;21.20;46.40
10538;DHT22;5317;49.048;8.468;2023-06-04T06:36:15;21.30;46.50
10538;DHT22;5317;49.048;8.468;2023-06-04T06:38:44;21.40;46.70
10538;DHT22;5317;49.048;8.468;2023-06-04T06:41:11;21.50;46.90
10538;DHT22;5317;49.048;8.468;2023-06-04T06:43:38;21.50;46.10
10538;DHT22;5317;49.048;8.468;2023-06-04T06:46:06;21.50;45.90
10538;DHT22;5317;49.048;8.468;2023-06-04T06:48:33;21.60;45.50
10538;DHT22;5317;49.048;8.468;2023-06-04T06:51:01;21.70;45.60
10538;DHT22;5317;49.048;8.468;2023-06-04T06:53:28;21.80;46.10
10538;DHT22;5317;49.048;8.468;2023-06-04T06:55:55;21.80;45.80
10538;DHT22;5317;49.048;8.468;2023-06-04T06:58:22;21.90;45.70
10538;DHT22;5317;49.048;8.468;2023-06-04T07:00:49;22.00;45.60
10538;DHT22;5317;49.048;8.468;2023-06-04T07:03:16;22.00;45.50
10538;DHT22;5317;49.048;8.468;2023-06-04T07:05:43;22.10;45.40
10538;DHT22;5317;49.048;8.468;2023-06-04T07:08:11;22.20;45.30
10538;DHT22;5317;49.048;8.468;2023-06-04T07:10:38;22.30;45.70
10538;DHT22;5317;49.048;8.468;2023-06-04T07:13:05;22.40;45.80
10538;DHT22;5317;49.048;8.468;2023-06-04T07:15:32;22.40;45.50
10538;DHT22;5317;49.048;8.468;2023-06-04T07:17:59;22.50;45.10
10538;DHT22;5317;49.048;8.468;2023-06-04T07:20:25;22.60;45.30
10538;DHT22;5317;49.048;8.468;2023-06-04T07:22:52;22.60;45.40
10538;DHT22;5317;49.048;8.468;2023-06-04T07:25:21;22.70;45.60
10538;DHT22;5317;49.048;8.468;2023-06-04T07:27:49;22.80;44.60
10538;DHT22;5317;49.048;8.468;2023-06-04T07:30:17;22.90;44.30
10538;DHT22;5317;49.048;8.468;2023-06-04T07:32:47;22.90;44.30
10538;DHT22;5317;49.048;8.468;2023-06-04T07:35:15;23.00;44.40
10538;DHT22;5317;49.048;8.468;2023-06-04T07:37:42;23.00;44.80
10538;DHT22;5317;49.048;8.468;2023-06-04T07:40:11;23.10;44.40
10538;DHT22;5317;49.048;8.468;2023-06-04T07:42:39;23.20;44.20
10538;DHT22;5317;49.048;8.468;2023-06-04T07:45:08;23.30;44.60
10538;DHT22;5317;49.048;8.468;2023-06-04T07:47:35;23.40;44.40
10538;DHT22;5317;49.048;8.468;2023-06-04T07:50:02;23.50;44.00
10538;DHT22;5317;49.048;8.468;2023-06-04T07:52:29;23.60;44.40
10538;DHT22;5317;49.048;8.468;2023-06-04T07:54:56;23.70;44.40
10538;DHT22;5317;49.048;8.468;2023-06-04T07:57:24;23.80;44.80
10538;DHT22;5317;49.048;8.468;2023-06-04T07:59:52;23.80;44.20
10538;DHT22;5317;49.048;8.468;2023-06-04T08:02:19;23.90;43.60
10538;DHT22;5317;49.048;8.468;2023-06-04T08:04:46;23.90;44.30
10538;DHT22;5317;49.048;8.468;2023-06-04T08:07:13;24.10;43.80
10538;DHT22;5317;49.048;8.468;2023-06-04T08:09:40;24.10;44.30
10538;DHT22;5317;49.048;8.468;2023-06-04T08:12:07;24.20;43.60
10538;DHT22;5317;49.048;8.468;2023-06-04T08:14:35;24.20;43.90
10538;DHT22;5317;49.048;8.468;2023-06-04T08:17:03;24.30;44.00
10538;DHT22;5317;49.048;8.468;2023-06-04T08:19:30;24.40;43.40
10538;DHT22;5317;49.048;8.468;2023-06-04T08:21:57;24.50;43.50
10538;DHT22;5317;49.048;8.468;2023-06-04T08:24:24;24.60;43.30
10538;DHT22;5317;49.048;8.468;2023-06-04T08:26:51;24.70;43.30
10538;DHT22;5317;49.048;8.468;2023-06-04T08:29:18;24.70;43.40
10538;DHT22;5317;49.048;8.468;2023-06-04T08:31:45;24.80;43.40
10538;DHT22;5317;49.048;8.468;2023-06-04T08:34:14;24.90;43.40
10538;DHT22;5317;49.048;8.468;2023-06-04T08:36:41;25.00;43.40
10538;DHT22;5317;49.048;8.468;2023-06-04T08:39:08;25.10;43.20
10538;DHT22;5317;49.048;8.468;2023-06-04T08:41:41;25.20;43.40
10538;DHT22;5317;49.048;8.468;2023-06-04T08:44:09;25.30;43.60
10538;DHT22;5317;49.048;8.468;2023-06-04T08:46:38;25.30;43.60
10538;DHT22;5317;49.048;8.468;2023-06-04T08:49:06;25.40;44.30
10538;DHT22;5317;49.048;8.468;2023-06-04T08:51:36;25.50;43.00
10538;DHT22;5317;49.048;8.468;2023-06-04T08:54:04;25.60;43.40
10538;DHT22;5317;49.048;8.468;2023-06-04T08:56:33;25.60;43.80
10538;DHT22;5317;49.048;8.468;2023-06-04T08:59:02;25.70;43.80
10538;DHT22;5317;49.048;8.468;2023-06-04T09:01:30;25.80;43.80
10538;DHT22;5317;49.048;8.468;2023-06-04T09:04:00;25.90;43.10
10538;DHT22;5317;49.048;8.468;2023-06-04T09:06:28;26.00;43.40
10538;DHT22;5317;49.048;8.468;2023-06-04T09:08:58;26.00;42.60
10538;DHT22;5317;49.048;8.468;2023-06-04T09:11:27;26.10;42.10
10538;DHT22;5317;49.048;8.468;2023-06-04T09:13:59;26.20;42.40
10538;DHT22;5317;49.048;8.468;2023-06-04T09:16:27;26.30;42.70
10538;DHT22;5317;49.048;8.468;2023-06-04T09:19:02;26.30;42.10
10538;DHT22;5317;49.048;8.468;2023-06-04T09:21:31;26.40;42.80
10538;DHT22;5317;49.048;8.468;2023-06-04T09:23:59;26.50;42.80
10538;DHT22;5317;49.048;8.468;2023-06-04T09:26:27;26.60;43.30
10538;DHT22;5317;49.048;8.468;2023-06-04T09:28:54;26.70;43.50
10538;DHT22;5317;49.048;8.468;2023-06-04T09:31:23;26.80;42.60
10538;DHT22;5317;49.048;8.468;2023-06-04T09:33:52;26.90;42.80
10538;DHT22;5317;49.048;8.468;2023-06-04T09:36:19;26.90;42.70
10538;DHT22;5317;49.048;8.468;2023-06-04T09:38:47;27.00;41.70
10538;DHT22;5317;49.048;8.468;2023-06-04T09:41:17;27.10;41.20
10538;DHT22;5317;49.048;8.468;2023-06-04T09:43:48;27.20;41.40
10538;DHT22;5317;49.048;8.468;2023-06-04T09:46:16;27.30;41.10
10538;DHT22;5317;49.048;8.468;2023-06-04T09:48:46;27.40;40.10
10538;DHT22;5317;49.048;8.468;2023-06-04T09:51:14;27.50;40.20
10538;DHT22;5317;49.048;8.468;2023-06-04T09:53:53;27.60;40.40
10538;DHT22;5317;49.048;8.468;2023-06-04T09:56:22;27.70;38.70
10538;DHT22;5317;49.048;8.468;2023-06-04T09:58:49;27.80;38.80
10538;DHT22;5317;49.048;8.468;2023-06-04T10:01:17;27.90;39.50
10538;DHT22;5317;49.048;8.468;2023-06-04T10:03:47;28.00;38.70
10538;DHT22;5317;49.048;8.468;2023-06-04T10:06:15;28.00;38.20
10538;DHT22;5317;49.048;8.468;2023-06-04T10:08:42;28.20;38.30
10538;DHT22;5317;49.048;8.468;2023-06-04T10:11:11;28.30;37.60
10538;DHT22;5317;49.048;8.468;2023-06-04T10:13:48;28.40;37.10
10538;DHT22;5317;49.048;8.468;2023-06-04T10:16:16;28.40;35.90
10538;DHT22;5317;49.048;8.468;2023-06-04T10:18:43;28.50;36.60
10538;DHT22;5317;49.048;8.468;2023-06-04T10:21:13;28.60;36.80
10538;DHT22;5317;49.048;8.468;2023-06-04T10:23:41;28.80;35.90
10538;DHT22;5317;49.048;8.468;2023-06-04T10:26:13;28.80;35.20
10538;DHT22;5317;49.048;8.468;2023-06-04T10:28:42;28.80;34.60
10538;DHT22;5317;49.048;8.468;2023-06-04T10:31:10;28.90;34.40
10538;DHT22;5317;49.048;8.468;2023-06-04T10:33:37;29.00;34.50
10538;DHT22;5317;49.048;8.468;2023-06-04T10:36:16;29.00;35.00
10538;DHT22;5317;49.048;8.468;2023-06-04T10:38:47;29.10;34.70
10538;DHT22;5317;49.048;8.468;2023-06-04T10:41:15;29.30;35.10
10538;DHT22;5317;49.048;8.468;2023-06-04T10:43:44;29.40;35.00
10538;DHT22;5317;49.048;8.468;2023-06-04T10:46:12;29.50;33.80
10538;DHT22;5317;49.048;8.468;2023-06-04T10:48:46;29.50;33.80
10538;DHT22;5317;49.048;8.468;2023-06-04T10:51:13;29.60;34.10
10538;DHT22;5317;49.048;8.468;2023-06-04T10:53:40;29.60;33.40
10538;DHT22;5317;49.048;8.468;2023-06-04T10:56:07;29.70;33.40
10538;DHT22;5317;49.048;8.468;2023-06-04T10:58:34;29.80;33.90
10538;DHT22;5317;49.048;8.468;2023-06-04T11:01:02;29.90;34.10
10538;DHT22;5317;49.048;8.468;2023-06-04T11:03:36;29.90;33.50
10538;DHT22;5317;49.048;8.468;2023-06-04T11:06:14;30.00;33.20
10538;DHT22;5317;49.048;8.468;2023-06-04T11:08:42;30.00;32.20
10538;DHT22;5317;49.048;8.468;2023-06-04T11:11:14;30.10;32.60
10538;DHT22;5317;49.048;8.468;2023-06-04T11:13:41;30.10;32.90
10538;DHT22;5317;49.048;8.468;2023-06-04T11:16:20;30.30;33.50
10538;DHT22;5317;49.048;8.468;2023-06-04T11:18:54;30.30;33.20
10538;DHT22;5317;49.048;8.468;2023-06-04T11:21:22;30.30;32.00
10538;DHT22;5317;49.048;8.468;2023-06-04T11:23:55;30.50;32.20
10538;DHT22;5317;49.048;8.468;2023-06-04T11:26:21;30.50;32.00
10538;DHT22;5317;49.048;8.468;2023-06-04T11:28:52;30.60;32.10
10538;DHT22;5317;49.048;8.468;2023-06-04T11:31:20;30.70;31.50
10538;DHT22;5317;49.048;8.468;2023-06-04T11:33:47;30.70;31.60
10538;DHT22;5317;49.048;8.468;2023-06-04T11:36:24;30.70;31.40
10538;DHT22;5317;49.048;8.468;2023-06-04T11:38:56;30.80;31.50
10538;DHT22;5317;49.048;8.468;2023-06-04T11:41:24;30.90;30.50
10538;DHT22;5317;49.048;8.468;2023-06-04T11:43:51;30.90;31.10
10538;DHT22;5317;49.048;8.468;2023-06-04T11:46:20;31.00;31.40
10538;DHT22;5317;49.048;8.468;2023-06-04T11:48:47;31.10;30.10
10538;DHT22;5317;49.048;8.468;2023-06-04T11:51:14;31.10;30.40
10538;DHT22;5317;49.048;8.468;2023-06-04T11:53:42;31.10;30.30
10538;DHT22;5317;49.048;8.468;2023-06-04T11:56:09;31.20;30.70
10538;DHT22;5317;49.048;8.468;2023-06-04T11:58:37;31.20;30.10
10538;DHT22;5317;49.048;8.468;2023-06-04T12:01:06;31.20;30.00
10538;DHT22;5317;49.048;8.468;2023-06-04T12:03:36;31.20;30.50
10538;DHT22;5317;49.048;8.468;2023-06-04T12:06:13;31.20;30.00
10538;DHT22;5317;49.048;8.468;2023-06-04T12:08:48;31.20;29.90
10538;DHT22;5317;49.048;8.468;2023-06-04T12:11:27;31.20;30.00
10538;DHT22;5317;49.048;8.468;2023-06-04T12:13:55;31.30;29.80
10538;DHT22;5317;49.048;8.468;2023-06-04T12:16:22;31.30;29.60
10538;DHT22;5317;49.048;8.468;2023-06-04T12:18:52;31.40;30.00
10538;DHT22;5317;49.048;8.468;2023-06-04T12:21:30;31.40;30.30
10538;DHT22;5317;49.048;8.468;2023-06-04T12:24:06;31.60;29.90
10538;DHT22;5317;49.048;8.468;2023-06-04T12:26:33;31.50;29.30
10538;DHT22;5317;49.048;8.468;2023-06-04T12:29:07;31.60;30.00
10538;DHT22;5317;49.048;8.468;2023-06-04T12:31:35;31.60;30.10
10538;DHT22;5317;49.048;8.468;2023-06-04T12:34:04;31.60;30.00
10538;DHT22;5317;49.048;8.468;2023-06-04T12:36:31;31.70;30.00
10538;DHT22;5317;49.048;8.468;2023-06-04T12:39:00;31.70;30.10
10538;DHT22;5317;49.048;8.468;2023-06-04T12:41:27;31.80;30.00
10538;DHT22;5317;49.048;8.468;2023-06-04T12:43:55;31.70;30.50
10538;DHT22;5317;49.048;8.468;2023-06-04T12:46:22;31.70;30.70
10538;DHT22;5317;49.048;8.468;2023-06-04T12:48:51;31.80;31.00
10538;DHT22;5317;49.048;8.468;2023-06-04T12:51:19;31.80;31.50
10538;DHT22;5317;49.048;8.468;2023-06-04T12:53:47;31.90;30.70
10538;DHT22;5317;49.048;8.468;2023-06-04T12:56:14;31.90;31.10
10538;DHT22;5317;49.048;8.468;2023-06-04T12:58:41;31.90;30.90
10538;DHT22;5317;49.048;8.468;2023-06-04T13:01:08;31.90;31.20
10538;DHT22;5317;49.048;8.468;2023-06-04T13:03:37;31.90;30.80
10538;DHT22;5317;49.048;8.468;2023-06-04T13:06:04;32.00;31.00
10538;DHT22;5317;49.048;8.468;2023-06-04T13:08:33;31.90;30.50
10538;DHT22;5317;49.048;8.468;2023-06-04T13:11:00;31.90;30.70
10538;DHT22;5317;49.048;8.468;2023-06-04T13:13:40;31.90;31.60
10538;DHT22;5317;49.048;8.468;2023-06-04T13:16:07;31.90;30.80
10538;DHT22;5317;49.048;8.468;2023-06-04T13:18:35;31.90;30.40
10538;DHT22;5317;49.048;8.468;2023-06-04T13:21:02;31.90;30.60
10538;DHT22;5317;49.048;8.468;2023-06-04T13:23:29;31.90;30.40
10538;DHT22;5317;49.048;8.468;2023-06-04T13:25:57;31.90;31.00
10538;DHT22;5317;49.048;8.468;2023-06-04T13:28:26;31.90;31.40
10538;DHT22;5317;49.048;8.468;2023-06-04T13:30:53;32.00;30.90
10538;DHT22;5317;49.048;8.468;2023-06-04T13:33:20;32.00;30.70
10538;DHT22;5317;49.048;8.468;2023-06-04T13:35:47;31.90;31.20
10538;DHT22;5317;49.048;8.468;2023-06-04T13:38:13;32.00;31.70
10538;DHT22;5317;49.048;8.468;2023-06-04T13:40:40;32.10;30.60
10538;DHT22;5317;49.048;8.468;2023-06-04T13:43:10;32.10;30.30
10538;DHT22;5317;49.048;8.468;2023-06-04T13:45:37;32.00;30.10
10538;DHT22;5317;49.048;8.468;2023-06-04T13:48:05;32.10;30.00
10538;DHT22;5317;49.048;8.468;2023-06-04T13:50:33;32.00;29.70
10538;DHT22;5317;49.048;8.468;2023-06-04T13:53:00;32.00;29.60
10538;DHT22;5317;49.048;8.468;2023-06-04T13:55:27;32.00;30.00
10538;DHT22;5317;49.048;8.468;2023-06-04T13:57:54;32.00;29.50
10538;DHT22;5317;49.048;8.468;2023-06-04T14:00:22;32.00;29.70
10538;DHT22;5317;49.048;8.468;2023-06-04T14:02:49;32.00;29.30
10538;DHT22;5317;49.048;8.468;2023-06-04T14:05:16;32.00;29.00
10538;DHT22;5317;49.048;8.468;2023-06-04T14:07:44;32.00;28.80
10538;DHT22;5317;49.048;8.468;2023-06-04T14:10:11;32.00;28.80
10538;DHT22;5317;49.048;8.468;2023-06-04T14:12:38;32.00;28.90
10538;DHT22;5317;49.048;8.468;2023-06-04T14:15:06;32.00;28.70
10538;DHT22;5317;49.048;8.468;2023-06-04T14:17:35;31.90;28.30
10538;DHT22;5317;49.048;8.468;2023-06-04T14:20:02;31.90;28.50
10538;DHT22;5317;49.048;8.468;2023-06-04T14:22:33;31.90;28.60
10538;DHT22;5317;49.048;8.468;2023-06-04T14:25:00;31.90;28.20
10538;DHT22;5317;49.048;8.468;2023-06-04T14:27:27;31.90;28.70
10538;DHT22;5317;49.048;8.468;2023-06-04T14:29:54;31.90;28.80
10538;DHT22;5317;49.048;8.468;2023-06-04T14:32:21;31.80;27.90
10538;DHT22;5317;49.048;8.468;2023-06-04T14:34:50;31.80;28.50
10538;DHT22;5317;49.048;8.468;2023-06-04T14:37:16;31.80;28.10
10538;DHT22;5317;49.048;8.468;2023-06-04T14:39:45;31.80;28.50
10538;DHT22;5317;49.048;8.468;2023-06-04T14:42:12;31.80;28.60
10538;DHT22;5317;49.048;8.468;2023-06-04T14:44:39;31.80;28.70
10538;DHT22;5317;49.048;8.468;2023-06-04T14:47:06;31.80;28.60
10538;DHT22;5317;49.048;8.468;2023-06-04T14:49:33;31.80;28.00
10538;DHT22;5317;49.048;8.468;2023-06-04T14:52:01;31.70;28.20
10538;DHT22;5317;49.048;8.468;2023-06-04T14:54:28;31.70;28.10
10538;DHT22;5317;49.048;8.468;2023-06-04T14:56:55;31.70;27.40
10538;DHT22;5317;49.048;8.468;2023-06-04T14:59:22;31.60;27.30
10538;DHT22;5317;49.048;8.468;2023-06-04T15:01:49;31.60;27.70
10538;DHT22;5317;49.048;8.468;2023-06-04T15:04:16;31.60;27.50
10538;DHT22;5317;49.048;8.468;2023-06-04T15:06:43;31.50;27.40
10538;DHT22;5317;49.048;8.468;2023-06-04T15:09:11;31.50;27.40
10538;DHT22;5317;49.048;8.468;2023-06-04T15:11:38;31.50;27.70
10538;DHT22;5317;49.048;8.468;2023-06-04T15:14:05;31.50;27.50
10538;DHT22;5317;49.048;8.468;2023-06-04T15:16:32;31.50;27.70
10538;DHT22;5317;49.048;8.468;2023-06-04T15:18:59;31.50;28.20
10538;DHT22;5317;49.048;8.468;2023-06-04T15:21:26;31.40;27.90
10538;DHT22;5317;49.048;8.468;2023-06-04T15:23:53;31.40;27.00
10538;DHT22;5317;49.048;8.468;2023-06-04T15:26:22;31.30;27.50
10538;DHT22;5317;49.048;8.468;2023-06-04T15:28:50;31.30;27.20
10538;DHT22;5317;49.048;8.468;2023-06-04T15:31:17;31.20;27.00
10538;DHT22;5317;49.048;8.468;2023-06-04T15:33:44;31.10;27.40
10538;DHT22;5317;49.048;8.468;2023-06-04T15:36:10;31.10;27.30
10538;DHT22;5317;49.048;8.468;2023-06-04T15:38:37;31.10;27.50
10538;DHT22;5317;49.048;8.468;2023-06-04T15:41:06;31.10;27.40
10538;DHT22;5317;49.048;8.468;2023-06-04T15:43:34;31.10;27.60
10538;DHT22;5317;49.048;8.468;2023-06-04T15:46:01;31.00;27.20
10538;DHT22;5317;49.048;8.468;2023-06-04T15:48:28;31.00;27.40
10538;DHT22;5317;49.048;8.468;2023-06-04T15:50:56;30.90;27.20